Time;durP1;ratioP1;P1;durP2;ratioP2;P2;SDS_P1;SDS_P2;PMS_P1;PMS_P2;Temp;Humidity;BMP_temperature;BMP_pressure;BME280_temperature;BME280_humidity;BME280_pressure;Samples;Min_cycle;Max_cycle;Signal;HPM_P1;HPM_P2
2021/06/07 12:15:21;;;;;;;4.80;2.03;;;;;;;;;;13007096;22;20185;-75
2021/06/07 12:20:23;;;;;;;4.93;1.70;;;;;;;;;;13007436;22;20654;-75
2021/06/07 12:25:31;;;;;;;5.33;1.97;;;;;;;;;;13028349;22;20194;-75
2021/06/07 12:30:35;;;;;;;2.73;1.80;;;;;;;;;;13030062;22;20595;-75
2021/06/07 12:35:39;;;;;;;3.93;1.60;;;;;;;;;;13025169;22;20223;-74
2021/06/07 12:40:42;;;;;;;4.23;1.60;;;;;;;;;;13011598;22;20201;-75
2021/06/07 12:45:47;;;;;;;4.10;1.80;;;;;;;;;;13006811;22;20478;-74
2021/06/07 12:50:51;;;;;;;4.87;1.60;;;;;;;;;;13028340;22;20172;-77
2021/06/07 12:55:55;;;;;;;3.80;1.70;;;;;;;;;;13031394;22;20197;-73
2021/06/07 13:01:02;;;;;;;2.33;1.50;;;;;;;;;;13011341;22;20182;-74
2021/06/07 13:06:06;;;;;;;4.30;2.00;;;;;;;;;;13027477;22;20201;-74
2021/06/07 13:11:08;;;;;;;2.13;1.50;;;;;;;;;;13011289;22;20200;-74
2021/06/07 13:16:13;;;;;;;3.97;1.57;;;;;;;;;;13029722;22;20174;-76
2021/06/07 13:21:18;;;;;;;1.67;1.43;;;;;;;;;;13030392;22;20208;-76
2021/06/07 13:26:22;;;;;;;4.50;1.47;;;;;;;;;;13031581;22;20192;-77
2021/06/07 13:31:26;;;;;;;3.97;1.70;;;;;;;;;;13009733;22;20177;-76
2021/06/07 13:36:28;;;;;;;5.13;1.70;;;;;;;;;;13010112;22;20174;-77
2021/06/07 13:41:31;;;;;;;1.73;1.40;;;;;;;;;;13009897;22;20259;-75
2021/06/07 13:46:35;;;;;;;6.07;1.50;;;;;;;;;;13012154;22;20692;-75
2021/06/07 13:51:37;;;;;;;1.40;1.30;;;;;;;;;;13006732;22;20181;-77
2021/06/07 13:56:40;;;;;;;4.00;1.50;;;;;;;;;;13010453;22;20413;-76
2021/06/07 14:01:44;;;;;;;1.67;1.20;;;;;;;;;;13008264;22;20181;-75
2021/06/07 14:06:49;;;;;;;2.50;1.40;;;;;;;;;;13006756;22;20201;-74
2021/06/07 14:11:51;;;;;;;3.00;1.33;;;;;;;;;;13008569;22;20193;-74
2021/06/07 14:16:55;;;;;;;4.77;1.53;;;;;;;;;;13010945;22;20174;-73
2021/06/07 14:27:17;;;;;;;1.97;1.30;;;;;;;;;;13032473;22;20445;-76
2021/06/07 14:32:21;;;;;;;1.47;1.20;;;;;;;;;;13011623;22;20174;-74
2021/06/07 14:37:24;;;;;;;3.03;1.20;;;;;;;;;;13031795;22;20177;-75
2021/06/07 14:42:27;;;;;;;1.93;1.30;;;;;;;;;;13012497;22;20209;-76
2021/06/07 14:47:32;;;;;;;5.07;1.30;;;;;;;;;;13013846;22;20207;-75
2021/06/07 14:52:35;;;;;;;2.30;1.20;;;;;;;;;;13032906;22;20204;-73
2021/06/07 14:57:38;;;;;;;3.13;1.50;;;;;;;;;;13013817;22;20213;-76
2021/06/07 15:02:42;;;;;;;2.37;1.33;;;;;;;;;;13031314;22;20166;-75
2021/06/07 15:07:44;;;;;;;1.77;1.00;;;;;;;;;;13035280;22;20201;-75
2021/06/07 15:12:46;;;;;;;1.77;1.10;;;;;;;;;;13008757;22;20646;-76
2021/06/07 15:17:50;;;;;;;1.60;1.10;;;;;;;;;;13011469;22;20216;-75
2021/06/07 15:22:53;;;;;;;1.10;1.00;;;;;;;;;;13010211;22;20185;-75
2021/06/07 15:27:55;;;;;;;3.43;1.50;;;;;;;;;;13011344;22;20535;-74
2021/06/07 15:32:59;;;;;;;2.17;1.43;;;;;;;;;;13032941;22;20616;-75
2021/06/07 15:38:02;;;;;;;3.13;1.50;;;;;;;;;;13034188;22;20650;-74
2021/06/07 15:43:04;;;;;;;3.07;1.40;;;;;;;;;;13011429;22;20776;-77
2021/06/07 15:48:08;;;;;;;1.60;1.37;;;;;;;;;;13007645;22;20214;-74
2021/06/07 15:53:11;;;;;;;6.23;1.40;;;;;;;;;;13015853;22;20180;-74
2021/06/07 15:58:14;;;;;;;2.03;1.57;;;;;;;;;;13013200;22;20193;-76
2021/06/07 16:03:18;;;;;;;1.40;1.30;;;;;;;;;;13014141;22;20174;-74
2021/06/07 16:08:20;;;;;;;4.60;2.00;;;;;;;;;;13012506;22;20613;-74
2021/06/07 16:13:23;;;;;;;3.43;1.70;;;;;;;;;;13019561;22;20208;-74
2021/06/07 16:18:29;;;;;;;3.27;1.73;;;;;;;;;;13009447;22;20181;-74
2021/06/07 16:23:31;;;;;;;4.20;1.70;;;;;;;;;;13027456;22;20170;-74
2021/06/07 16:28:35;;;;;;;4.87;1.60;;;;;;;;;;13008879;22;20682;-73
2021/06/07 16:33:38;;;;;;;6.63;2.00;;;;;;;;;;13008536;22;20174;-74
2021/06/07 16:38:41;;;;;;;3.53;1.70;;;;;;;;;;13009356;22;20174;-74
2021/06/07 16:43:43;;;;;;;3.50;1.90;;;;;;;;;;13010951;22;20486;-81
2021/06/07 16:48:47;;;;;;;3.97;2.10;;;;;;;;;;13027971;22;20662;-78
2021/06/07 16:53:49;;;;;;;4.17;2.20;;;;;;;;;;13011430;22;20173;-78
2021/06/07 16:58:52;;;;;;;3.30;2.10;;;;;;;;;;13008387;22;20182;-77
2021/06/07 17:03:56;;;;;;;4.47;2.50;;;;;;;;;;13007198;22;20726;-74
2021/06/07 17:08:58;;;;;;;7.13;2.40;;;;;;;;;;13007318;22;20292;-75
2021/06/07 17:14:12;;;;;;;3.43;2.40;;;;;;;;;;13008496;22;20182;-78
2021/06/07 17:19:16;;;;;;;4.67;2.30;;;;;;;;;;13026208;22;20170;-76
2021/06/07 17:24:18;;;;;;;3.77;2.60;;;;;;;;;;13033638;22;20182;-75
2021/06/07 17:29:21;;;;;;;2.53;1.90;;;;;;;;;;13030854;22;20205;-76
2021/06/07 17:34:25;;;;;;;4.07;2.27;;;;;;;;;;13029865;22;20197;-80
2021/06/07 17:39:27;;;;;;;4.10;2.50;;;;;;;;;;13030657;22;20431;-77
2021/06/07 17:44:30;;;;;;;4.30;2.60;;;;;;;;;;13013397;22;20284;-78
2021/06/07 17:49:34;;;;;;;3.07;2.43;;;;;;;;;;13028289;22;20212;-76
2021/06/07 17:54:37;;;;;;;5.20;2.40;;;;;;;;;;13032026;22;20510;-79
2021/06/07 17:59:39;;;;;;;3.07;2.20;;;;;;;;;;13030975;22;20178;-79
2021/06/07 18:04:43;;;;;;;4.13;2.60;;;;;;;;;;13033985;22;20257;-79
2021/06/07 18:09:46;;;;;;;5.47;2.40;;;;;;;;;;13035664;22;20485;-80
2021/06/07 18:14:48;;;;;;;3.67;2.70;;;;;;;;;;13036908;22;20263;-79
2021/06/07 18:19:52;;;;;;;3.00;2.40;;;;;;;;;;13031187;22;20692;-79
2021/06/07 18:24:55;;;;;;;3.60;2.80;;;;;;;;;;13037979;22;20169;-79
2021/06/07 18:29:57;;;;;;;3.57;2.90;;;;;;;;;;13038854;22;20177;-80
2021/06/07 18:35:01;;;;;;;4.90;3.33;;;;;;;;;;13014985;22;20177;-79
2021/06/07 18:40:04;;;;;;;4.43;2.83;;;;;;;;;;13017704;22;20185;-79
2021/06/07 18:45:06;;;;;;;4.33;3.10;;;;;;;;;;13034287;22;20298;-80
2021/06/07 18:50:11;;;;;;;4.60;2.97;;;;;;;;;;13013414;22;20296;-80
2021/06/07 18:55:13;;;;;;;3.67;2.90;;;;;;;;;;13013875;22;20644;-79
2021/06/07 19:00:16;;;;;;;4.57;3.00;;;;;;;;;;13017080;22;20173;-79
2021/06/07 19:05:20;;;;;;;6.23;3.17;;;;;;;;;;13012415;22;20205;-79
2021/06/07 19:10:27;;;;;;;8.33;3.60;;;;;;;;;;13039805;22;20264;-79
2021/06/07 19:15:31;;;;;;;6.77;3.03;;;;;;;;;;13033604;22;20177;-77
2021/06/07 19:20:34;;;;;;;3.17;2.67;;;;;;;;;;13013473;22;20181;-80
2021/06/07 19:25:38;;;;;;;3.23;2.70;;;;;;;;;;13014337;22;20205;-78
2021/06/07 19:30:40;;;;;;;3.70;2.80;;;;;;;;;;13037227;22;20499;-81
2021/06/07 19:35:45;;;;;;;4.80;2.60;;;;;;;;;;13033699;22;20174;-79
2021/06/07 19:40:47;;;;;;;4.13;2.70;;;;;;;;;;13037774;22;20201;-78
2021/06/07 19:45:50;;;;;;;3.40;2.53;;;;;;;;;;13013651;22;20205;-81
2021/06/07 19:50:54;;;;;;;6.53;2.80;;;;;;;;;;13013054;22;20177;-80
2021/06/07 19:55:57;;;;;;;4.00;2.80;;;;;;;;;;13014006;22;20173;-80
2021/06/07 20:01:00;;;;;;;4.10;2.63;;;;;;;;;;13037045;22;20178;-80
2021/06/07 20:06:04;;;;;;;6.47;2.60;;;;;;;;;;13032736;22;20788;-80
2021/06/07 20:11:06;;;;;;;4.70;2.50;;;;;;;;;;13035193;22;20178;-80
2021/06/07 20:16:09;;;;;;;3.57;2.57;;;;;;;;;;13033595;22;20208;-81
2021/06/07 20:21:12;;;;;;;3.77;2.40;;;;;;;;;;13031897;22;20227;-80
2021/06/07 20:26:15;;;;;;;4.47;2.60;;;;;;;;;;13013034;22;20690;-81
2021/06/07 20:31:17;;;;;;;2.93;2.33;;;;;;;;;;13035227;22;20181;-79
2021/06/07 20:36:22;;;;;;;5.90;3.07;;;;;;;;;;13032338;22;20960;-81
2021/06/07 20:41:25;;;;;;;3.63;2.50;;;;;;;;;;13017895;22;20202;-80
2021/06/07 20:46:30;;;;;;;3.87;2.70;;;;;;;;;;13012489;22;20208;-80
2021/06/07 20:51:34;;;;;;;5.53;2.83;;;;;;;;;;13013925;22;20204;-80
2021/06/07 20:56:37;;;;;;;3.97;2.40;;;;;;;;;;13035737;22;20192;-81
2021/06/07 21:01:41;;;;;;;5.47;2.60;;;;;;;;;;13016595;22;20320;-81
2021/06/07 21:06:45;;;;;;;5.53;2.60;;;;;;;;;;13010049;22;20933;-81
2021/06/07 21:11:48;;;;;;;4.77;3.17;;;;;;;;;;13038576;22;20188;-80
2021/06/07 21:16:50;;;;;;;3.60;2.60;;;;;;;;;;13036025;22;20183;-81
2021/06/07 21:21:54;;;;;;;6.27;3.07;;;;;;;;;;13035560;22;20173;-80
2021/06/07 21:26:57;;;;;;;3.87;2.80;;;;;;;;;;13042240;22;20205;-80
2021/06/07 21:31:59;;;;;;;4.30;3.20;;;;;;;;;;13013523;22;20185;-80
2021/06/07 21:37:04;;;;;;;7.57;3.43;;;;;;;;;;13013380;22;20564;-81
2021/06/07 21:48:10;;;;;;;5.03;3.43;;;;;;;;;;13030571;22;20189;-80
2021/06/07 21:53:14;;;;;;;5.23;4.17;;;;;;;;;;13034469;22;20174;-80
2021/06/07 21:58:17;;;;;;;7.13;3.93;;;;;;;;;;13032619;22;20197;-80
2021/06/07 22:03:19;;;;;;;7.73;4.40;;;;;;;;;;13011023;22;20277;-77
2021/06/07 22:08:23;;;;;;;5.63;4.40;;;;;;;;;;13037076;22;20198;-80
2021/06/07 22:13:44;;;;;;;6.17;4.40;;;;;;;;;;13031916;22;20251;-80
2021/06/07 22:18:50;;;;;;;8.47;4.53;;;;;;;;;;13033306;22;20181;-80
2021/06/07 22:23:54;;;;;;;8.20;5.03;;;;;;;;;;13033534;22;20177;-80
2021/06/07 22:28:57;;;;;;;9.93;5.97;;;;;;;;;;13013116;22;20530;-81
2021/06/07 22:33:59;;;;;;;7.30;5.10;;;;;;;;;;13008956;22;20508;-79
2021/06/07 22:39:03;;;;;;;7.20;5.27;;;;;;;;;;13035056;22;20188;-79
2021/06/07 22:44:06;;;;;;;9.93;5.50;;;;;;;;;;13032392;22;20189;-79
2021/06/07 22:49:09;;;;;;;7.77;5.57;;;;;;;;;;13033187;22;20255;-79
2021/06/07 22:54:12;;;;;;;8.43;5.80;;;;;;;;;;13015276;22;20174;-81
2021/06/07 22:59:15;;;;;;;9.27;5.90;;;;;;;;;;13038945;22;20170;-79
2021/06/07 23:04:17;;;;;;;9.67;6.37;;;;;;;;;;13013016;22;20202;-80
2021/06/07 23:09:21;;;;;;;10.27;6.40;;;;;;;;;;13037708;22;20201;-80
2021/06/07 23:14:23;;;;;;;8.37;6.50;;;;;;;;;;13035696;22;20186;-81
2021/06/07 23:19:25;;;;;;;7.93;6.93;;;;;;;;;;13013759;22;20185;-79
2021/06/07 23:24:30;;;;;;;10.40;7.17;;;;;;;;;;13015643;22;20228;-80
2021/06/07 23:29:32;;;;;;;11.97;7.27;;;;;;;;;;13018222;22;20209;-80
2021/06/07 23:34:34;;;;;;;10.67;7.93;;;;;;;;;;13012209;22;20722;-79
2021/06/07 23:39:38;;;;;;;12.40;7.40;;;;;;;;;;13016864;22;20182;-80
2021/06/07 23:44:40;;;;;;;11.10;7.87;;;;;;;;;;13034608;22;20232;-80
2021/06/07 23:49:43;;;;;;;13.37;8.27;;;;;;;;;;13011870;22;20208;-80
2021/06/07 23:54:47;;;;;;;11.87;7.90;;;;;;;;;;13034212;22;20184;-80
2021/06/07 23:59:50;;;;;;;12.43;8.30;;;;;;;;;;13013155;22;20657;-78
